Time;durP1;ratioP1;P1;durP2;ratioP2;P2;SDS_P1;SDS_P2;PMS_P1;PMS_P2;Temp;Humidity;BMP_temperature;BMP_pressure;BME280_temperature;BME280_humidity;BME280_pressure;Samples;Min_cycle;Max_cycle;Signal;HPM_P1;HPM_P2
2020/12/30 00:00:37;;;;;;;12.87;11.60;;;2.40;99.90;;;;;;5008737;28;20668;-91
2020/12/30 00:03:10;;;;;;;13.30;12.10;;;2.40;99.90;;;;;;5009832;28;20631;-91
2020/12/30 00:05:37;;;;;;;12.50;11.20;;;2.40;99.90;;;;;;5007128;28;20638;-91
2020/12/30 00:08:05;;;;;;;12.80;11.50;;;2.40;99.90;;;;;;5007930;28;20659;-92
2020/12/30 00:10:31;;;;;;;14.47;13.00;;;2.30;99.90;;;;;;5010123;28;20664;-91
2020/12/30 00:12:58;;;;;;;13.47;12.07;;;2.30;99.90;;;;;;5007204;28;20681;-91
2020/12/30 00:15:32;;;;;;;15.93;12.53;;;2.30;99.90;;;;;;4998827;28;20672;-91
2020/12/30 00:17:59;;;;;;;14.60;13.20;;;2.40;99.90;;;;;;5006755;28;20646;-91
2020/12/30 00:20:26;;;;;;;14.07;12.70;;;2.40;99.90;;;;;;5006478;28;20665;-91
2020/12/30 00:22:54;;;;;;;14.03;12.10;;;2.40;99.90;;;;;;5019403;28;20659;-92
2020/12/30 00:25:21;;;;;;;15.03;11.70;;;2.40;99.90;;;;;;5021773;28;20640;-93
2020/12/30 00:27:47;;;;;;;12.37;11.03;;;2.40;99.90;;;;;;5014299;28;20637;-91
2020/12/30 00:30:15;;;;;;;14.10;11.83;;;2.40;99.90;;;;;;5002101;28;20673;-92
2020/12/30 00:32:43;;;;;;;12.43;11.13;;;2.40;99.90;;;;;;5008387;28;20643;-92
2020/12/30 00:35:10;;;;;;;11.27;10.17;;;2.40;99.90;;;;;;5007060;28;20685;-92
2020/12/30 00:37:37;;;;;;;11.90;10.63;;;2.50;99.90;;;;;;5008645;28;20657;-92
2020/12/30 00:40:07;;;;;;;12.27;11.07;;;2.50;99.90;;;;;;5005310;28;20669;-91
2020/12/30 00:42:36;;;;;;;11.03;10.00;;;2.40;99.90;;;;;;4997718;28;20642;-94
2020/12/30 00:45:03;;;;;;;12.03;9.53;;;2.40;99.90;;;;;;5006367;28;20630;-92
2020/12/30 00:47:30;;;;;;;11.33;10.20;;;2.50;99.90;;;;;;5006363;28;20625;-93
2020/12/30 00:49:57;;;;;;;11.00;9.90;;;2.40;99.90;;;;;;5007617;28;20645;-93
2020/12/30 00:52:24;;;;;;;10.60;9.50;;;2.40;99.90;;;;;;4999398;28;20646;-93
2020/12/30 00:54:50;;;;;;;10.63;9.57;;;2.40;99.90;;;;;;5003660;28;20712;-92
2020/12/30 00:57:18;;;;;;;10.40;9.40;;;2.50;99.90;;;;;;4999813;28;20641;-92
2020/12/30 00:59:44;;;;;;;10.63;9.20;;;2.40;99.90;;;;;;5003550;28;20711;-93
2020/12/30 01:02:11;;;;;;;10.10;9.10;;;2.50;99.90;;;;;;4999864;28;20648;-92
2020/12/30 01:04:38;;;;;;;9.90;9.00;;;2.50;99.90;;;;;;5002359;28;20646;-93
2020/12/30 01:07:05;;;;;;;10.63;9.50;;;2.30;99.90;;;;;;5006594;28;20680;-91
2020/12/30 01:09:31;;;;;;;9.37;8.50;;;2.40;99.90;;;;;;5004466;28;20715;-92
2020/12/30 01:12:00;;;;;;;10.03;9.03;;;2.30;99.90;;;;;;5003303;28;20628;-92
2020/12/30 01:14:28;;;;;;;10.57;9.63;;;2.20;99.90;;;;;;5002990;28;20649;-93
2020/12/30 01:16:55;;;;;;;9.37;8.47;;;2.30;99.90;;;;;;5000110;28;20679;-92
2020/12/30 01:19:22;;;;;;;9.50;8.60;;;2.40;99.90;;;;;;5000220;28;21221;-92
2020/12/30 01:21:49;;;;;;;10.33;9.33;;;2.40;99.90;;;;;;4994565;28;20647;-92
2020/12/30 01:24:16;;;;;;;12.33;8.83;;;2.30;99.90;;;;;;5004612;28;20644;-92
2020/12/30 01:26:43;;;;;;;9.30;8.37;;;2.30;99.90;;;;;;5004753;28;21052;-91
2020/12/30 01:29:10;;;;;;;9.10;8.20;;;2.40;99.90;;;;;;5003379;28;20635;-92
2020/12/30 01:31:45;;;;;;;9.27;8.20;;;2.50;99.90;;;;;;5007630;28;20644;-93
2020/12/30 01:34:12;;;;;;;10.00;8.30;;;2.40;99.90;;;;;;5008013;28;21085;-94
2020/12/30 01:36:38;;;;;;;9.30;8.37;;;2.60;99.90;;;;;;5008695;28;21038;-93
2020/12/30 01:39:05;;;;;;;8.30;7.53;;;2.50;99.90;;;;;;5005402;28;20639;-94
2020/12/30 01:41:33;;;;;;;11.27;8.47;;;2.70;99.90;;;;;;5005742;28;20783;-94
2020/12/30 01:44:05;;;;;;;7.97;6.80;;;2.40;99.90;;;;;;5007992;28;20650;-94
2020/12/30 01:46:37;;;;;;;8.40;7.60;;;2.50;99.90;;;;;;5007270;28;20646;-94
2020/12/30 01:49:06;;;;;;;7.73;7.03;;;2.60;99.90;;;;;;5009031;28;21251;-93
2020/12/30 01:51:37;;;;;;;7.80;7.00;;;2.50;99.90;;;;;;5005580;28;20761;-92
2020/12/30 01:54:04;;;;;;;8.47;7.57;;;2.70;99.90;;;;;;5002965;28;20646;-92
2020/12/30 01:56:33;;;;;;;8.87;7.97;;;2.60;99.90;;;;;;5005754;28;20677;-93
2020/12/30 01:58:59;;;;;;;10.90;9.90;;;2.60;99.90;;;;;;5001683;28;20646;-93
2020/12/30 02:01:36;;;;;;;9.90;8.90;;;2.60;99.90;;;;;;5005233;28;20662;-93
2020/12/30 02:04:05;;;;;;;9.43;7.63;;;2.60;99.90;;;;;;5002290;28;20649;-92
2020/12/30 02:06:33;;;;;;;8.77;8.00;;;2.60;99.90;;;;;;5004035;28;21260;-92
2020/12/30 02:09:00;;;;;;;11.63;10.40;;;2.60;99.90;;;;;;5003692;28;20641;-93
2020/12/30 02:11:27;;;;;;;9.53;8.60;;;2.60;99.90;;;;;;5004075;28;21252;-93
2020/12/30 02:14:01;;;;;;;9.93;9.13;;;2.70;99.90;;;;;;5004402;28;20660;-93
2020/12/30 02:16:28;;;;;;;8.93;8.23;;;2.70;99.90;;;;;;5006503;28;20798;-93
2020/12/30 02:18:54;;;;;;;11.00;10.10;;;2.70;99.90;;;;;;5005047;28;20662;-92
2020/12/30 02:21:23;;;;;;;8.40;7.70;;;2.60;99.90;;;;;;5001656;28;20760;-90
2020/12/30 02:23:51;;;;;;;9.10;8.40;;;2.70;99.90;;;;;;5001352;28;20642;-91
2020/12/30 02:26:21;;;;;;;9.03;8.13;;;2.70;99.90;;;;;;5004006;28;21402;-91
2020/12/30 02:28:47;;;;;;;8.67;7.83;;;2.80;99.90;;;;;;5007997;28;20719;-91
2020/12/30 02:31:14;;;;;;;8.17;7.47;;;2.80;99.90;;;;;;5003571;28;20782;-91
2020/12/30 02:33:41;;;;;;;9.23;6.67;;;2.80;99.90;;;;;;5005622;28;20649;-91
2020/12/30 02:36:09;;;;;;;6.87;6.27;;;2.70;99.90;;;;;;5000093;28;21229;-92
2020/12/30 02:38:36;;;;;;;5.30;4.80;;;2.90;99.90;;;;;;5007423;28;20757;-92
2020/12/30 02:41:04;;;;;;;7.00;6.40;;;3.00;99.90;;;;;;5007778;28;20794;-92
2020/12/30 02:43:32;;;;;;;6.53;5.07;;;3.10;99.90;;;;;;4997234;28;21167;-92
2020/12/30 02:45:58;;;;;;;5.03;4.63;;;3.00;99.90;;;;;;5006781;28;20651;-92
2020/12/30 02:48:24;;;;;;;5.40;4.53;;;3.00;99.90;;;;;;5003201;28;21158;-91
2020/12/30 02:50:53;;;;;;;7.27;4.37;;;3.00;99.90;;;;;;4998321;28;20773;-92
2020/12/30 02:53:20;;;;;;;4.00;3.70;;;3.10;99.90;;;;;;5001452;28;21187;-91
2020/12/30 02:55:48;;;;;;;4.80;4.40;;;3.20;99.90;;;;;;5005560;28;20670;-91
2020/12/30 02:58:15;;;;;;;3.93;3.63;;;3.20;99.90;;;;;;5004180;28;20644;-94
2020/12/30 03:00:42;;;;;;;6.13;4.70;;;3.10;99.90;;;;;;5008947;28;20714;-92
2020/12/30 03:03:09;;;;;;;3.90;3.10;;;3.10;99.90;;;;;;5003104;28;20642;-93
2020/12/30 03:05:35;;;;;;;3.03;2.73;;;3.20;99.90;;;;;;5004432;28;21300;-94
2020/12/30 03:08:01;;;;;;;4.70;4.20;;;3.20;99.90;;;;;;5005476;28;21155;-94
2020/12/30 03:10:28;;;;;;;3.63;3.33;;;3.30;99.90;;;;;;5004412;28;20679;-95
2020/12/30 03:12:55;;;;;;;3.53;3.03;;;3.20;99.90;;;;;;5002252;28;20671;-94
2020/12/30 03:15:21;;;;;;;3.50;3.10;;;3.20;99.90;;;;;;5007493;28;20738;-94
2020/12/30 03:17:48;;;;;;;3.43;3.13;;;3.20;99.90;;;;;;5009054;28;20660;-94
2020/12/30 03:20:15;;;;;;;3.53;3.23;;;3.00;99.90;;;;;;5000863;28;20654;-94
2020/12/30 03:22:41;;;;;;;4.00;2.90;;;3.10;99.90;;;;;;5003756;28;20721;-94
2020/12/30 03:25:10;;;;;;;2.97;2.60;;;3.10;99.90;;;;;;5007461;28;20643;-95
2020/12/30 03:27:38;;;;;;;3.70;2.90;;;3.40;99.90;;;;;;5007816;28;20663;-96
2020/12/30 03:30:08;;;;;;;5.00;2.83;;;3.00;99.90;;;;;;5006793;28;20649;-95
2020/12/30 03:32:36;;;;;;;2.63;2.43;;;3.10;99.90;;;;;;4999882;28;20637;-94
2020/12/30 03:35:08;;;;;;;3.50;3.20;;;3.10;99.90;;;;;;5003401;28;20658;-93
2020/12/30 03:37:35;;;;;;;3.23;3.00;;;3.20;99.90;;;;;;5007648;28;20711;-93
2020/12/30 03:40:02;;;;;;;2.90;2.70;;;3.20;99.90;;;;;;5000694;28;20701;-94
2020/12/30 03:42:29;;;;;;;5.60;3.30;;;3.10;99.90;;;;;;5001875;28;20676;-94
2020/12/30 03:44:58;;;;;;;3.23;2.93;;;3.00;99.90;;;;;;5006286;28;21254;-94
2020/12/30 03:47:28;;;;;;;4.13;3.40;;;3.10;99.90;;;;;;5003394;28;20664;-93
2020/12/30 03:49:54;;;;;;;4.30;3.90;;;3.10;99.90;;;;;;4996749;28;20643;-93
2020/12/30 03:52:25;;;;;;;3.70;3.40;;;3.10;99.90;;;;;;5000755;28;20660;-94
2020/12/30 03:54:59;;;;;;;5.10;4.37;;;3.20;99.90;;;;;;5005982;28;20725;-95
2020/12/30 03:57:35;;;;;;;6.03;3.70;;;3.10;99.90;;;;;;5010177;28;21255;-96
2020/12/30 04:00:01;;;;;;;3.20;2.93;;;3.10;99.90;;;;;;5003503;28;21286;-93
2020/12/30 04:02:30;;;;;;;2.83;2.63;;;3.30;99.90;;;;;;5003050;28;20683;-94
2020/12/30 04:05:02;;;;;;;6.27;4.00;;;3.20;99.90;;;;;;5006060;28;20751;-95
2020/12/30 04:07:31;;;;;;;3.53;3.23;;;2.80;99.90;;;;;;5008877;28;20692;-96
2020/12/30 04:10:13;;;;;;;4.60;4.20;;;2.70;99.90;;;;;;5012740;28;21102;-96
2020/12/30 04:12:40;;;;;;;4.63;4.10;;;2.70;99.90;;;;;;5018786;28;20646;-95
2020/12/30 04:15:18;;;;;;;4.33;3.70;;;2.70;99.90;;;;;;5009373;28;20667;-96
2020/12/30 04:17:45;;;;;;;4.87;3.90;;;2.60;99.90;;;;;;5015393;28;20693;-94
2020/12/30 04:20:28;;;;;;;4.33;3.70;;;2.50;99.90;;;;;;5010359;28;20642;-94
2020/12/30 04:22:58;;;;;;;3.73;3.43;;;2.50;99.90;;;;;;5007931;28;21224;-93
2020/12/30 04:25:25;;;;;;;4.67;3.60;;;2.50;99.90;;;;;;5002147;28;20666;-92
2020/12/30 04:27:58;;;;;;;4.47;4.07;;;2.30;99.90;;;;;;5003954;28;20681;-93
2020/12/30 04:30:24;;;;;;;3.97;3.57;;;2.20;99.90;;;;;;5002388;28;20643;-93
2020/12/30 04:32:51;;;;;;;3.37;3.07;;;2.10;99.90;;;;;;5000300;28;20685;-92
2020/12/30 04:35:28;;;;;;;5.27;2.40;;;2.10;99.90;;;;;;5001925;28;20669;-93
2020/12/30 04:38:04;;;;;;;4.03;3.23;;;2.10;99.90;;;;;;4997505;28;21224;-93
2020/12/30 04:40:30;;;;;;;3.20;2.60;;;2.00;99.90;;;;;;4997236;28;21197;-93
2020/12/30 04:43:05;;;;;;;3.53;2.60;;;2.00;99.90;;;;;;5001125;28;21207;-94
2020/12/30 04:45:36;;;;;;;1.90;1.80;;;2.10;99.90;;;;;;5005006;28;20642;-93
2020/12/30 04:48:03;;;;;;;2.80;2.60;;;2.00;99.90;;;;;;5003559;28;21247;-92
2020/12/30 04:50:30;;;;;;;2.47;2.27;;;2.00;99.90;;;;;;4998455;28;20696;-93
2020/12/30 04:52:58;;;;;;;2.50;2.30;;;1.90;99.90;;;;;;5002193;28;20659;-93
2020/12/30 04:55:31;;;;;;;3.00;2.70;;;1.80;99.90;;;;;;4999895;28;20692;-93
2020/12/30 04:58:05;;;;;;;3.73;2.40;;;1.80;99.90;;;;;;5003006;28;20668;-92
2020/12/30 05:00:35;;;;;;;3.33;2.20;;;2.10;99.90;;;;;;5001741;28;20737;-93
2020/12/30 05:03:07;;;;;;;2.50;2.30;;;1.70;99.90;;;;;;5000585;28;20648;-92
2020/12/30 05:05:45;;;;;;;3.00;1.93;;;1.70;99.90;;;;;;5010162;28;20649;-93
2020/12/30 05:08:15;;;;;;;2.23;2.03;;;1.80;99.90;;;;;;5005711;28;20666;-92
2020/12/30 05:10:45;;;;;;;5.90;2.33;;;1.80;99.90;;;;;;5007547;28;20643;-93
2020/12/30 05:13:12;;;;;;;2.20;2.00;;;1.70;99.90;;;;;;5010294;28;20651;-92
2020/12/30 05:15:41;;;;;;;5.10;2.50;;;1.70;99.90;;;;;;5009883;28;21473;-94
2020/12/30 05:18:12;;;;;;;4.60;2.70;;;1.70;99.90;;;;;;5010239;28;20710;-93
2020/12/30 05:20:39;;;;;;;3.07;2.77;;;2.40;99.90;;;;;;5008585;28;20748;-93
2020/12/30 05:23:08;;;;;;;2.40;1.90;;;1.80;99.90;;;;;;5008141;28;20966;-93
2020/12/30 05:25:42;;;;;;;4.70;2.27;;;1.80;99.90;;;;;;5010239;28;20643;-93
2020/12/30 05:28:11;;;;;;;3.53;2.20;;;1.80;99.90;;;;;;5003763;28;20671;-93
2020/12/30 05:30:40;;;;;;;2.50;2.33;;;1.80;99.90;;;;;;5010996;28;20650;-93
2020/12/30 05:33:07;;;;;;;2.80;2.30;;;1.80;99.90;;;;;;5002633;28;20651;-94
2020/12/30 05:35:34;;;;;;;2.73;2.50;;;1.60;99.90;;;;;;5010369;28;20678;-94
2020/12/30 05:38:07;;;;;;;3.40;2.83;;;1.70;99.90;;;;;;5010870;28;20684;-93
2020/12/30 05:40:35;;;;;;;3.60;3.17;;;1.70;99.90;;;;;;5014843;28;20648;-94
2020/12/30 05:43:17;;;;;;;3.10;2.23;;;1.70;99.90;;;;;;5001644;28;20640;-94
2020/12/30 05:45:45;;;;;;;2.47;2.27;;;1.70;99.90;;;;;;5009146;28;21043;-93
2020/12/30 05:48:14;;;;;;;4.60;3.30;;;1.70;99.90;;;;;;5001492;28;20710;-93
2020/12/30 05:50:47;;;;;;;5.23;3.80;;;1.70;99.90;;;;;;5001950;28;20688;-93
2020/12/30 05:53:17;;;;;;;10.03;3.40;;;1.70;99.90;;;;;;4999992;28;20631;-94
2020/12/30 05:55:48;;;;;;;3.40;3.10;;;1.80;99.90;;;;;;5003126;28;20682;-94
2020/12/30 05:58:16;;;;;;;4.27;3.63;;;1.80;99.90;;;;;;5002774;28;20652;-93
2020/12/30 06:00:44;;;;;;;4.33;3.93;;;1.90;99.90;;;;;;5010834;28;20650;-94
2020/12/30 06:03:13;;;;;;;4.40;4.00;;;1.80;99.90;;;;;;5006203;28;21049;-93
2020/12/30 06:05:43;;;;;;;5.00;4.50;;;1.80;99.90;;;;;;5005688;28;21606;-94
2020/12/30 06:08:11;;;;;;;5.57;4.93;;;1.80;99.90;;;;;;5006178;28;20683;-94
2020/12/30 06:10:44;;;;;;;5.97;5.37;;;1.90;99.90;;;;;;5010088;28;20633;-94
2020/12/30 06:13:23;;;;;;;8.53;5.93;;;1.90;99.90;;;;;;5004122;28;20663;-94
2020/12/30 06:16:03;;;;;;;6.70;5.17;;;1.90;99.90;;;;;;5001520;28;20669;-94
2020/12/30 06:18:39;;;;;;;7.10;6.40;;;2.00;99.90;;;;;;5007160;28;20652;-96
2020/12/30 06:21:07;;;;;;;5.97;5.40;;;2.10;99.90;;;;;;5000534;28;20622;-93
2020/12/30 06:23:37;;;;;;;6.80;6.20;;;2.00;99.90;;;;;;5001762;28;20644;-94
2020/12/30 06:26:07;;;;;;;6.87;6.13;;;1.90;99.90;;;;;;5015073;28;20657;-93
2020/12/30 06:28:36;;;;;;;6.67;6.07;;;1.90;99.90;;;;;;5016405;28;20630;-94
2020/12/30 06:31:03;;;;;;;6.47;5.67;;;2.00;99.90;;;;;;5008643;28;20669;-93
2020/12/30 06:33:29;;;;;;;6.67;6.10;;;2.00;99.90;;;;;;5013962;28;20651;-94
2020/12/30 06:35:57;;;;;;;7.47;6.77;;;1.90;99.90;;;;;;5022405;28;20860;-93
2020/12/30 06:38:25;;;;;;;9.50;5.90;;;2.00;99.90;;;;;;5027482;28;20649;-94
2020/12/30 06:40:59;;;;;;;7.60;5.93;;;2.00;99.90;;;;;;5030384;28;20627;-95
2020/12/30 06:43:40;;;;;;;8.10;7.37;;;2.00;99.90;;;;;;5030944;28;20710;-92
2020/12/30 06:46:10;;;;;;;7.13;6.40;;;1.90;99.90;;;;;;5025083;28;20688;-93
2020/12/30 06:48:54;;;;;;;6.17;5.57;;;1.90;99.90;;;;;;5029078;28;20638;-93
2020/12/30 06:51:22;;;;;;;5.87;5.20;;;2.00;99.90;;;;;;5024652;28;20629;-94
2020/12/30 06:53:53;;;;;;;7.10;6.37;;;2.10;99.90;;;;;;5018958;28;20630;-92
2020/12/30 06:56:39;;;;;;;8.50;6.30;;;2.30;99.90;;;;;;5009548;28;20689;-94
2020/12/30 06:59:14;;;;;;;7.80;7.10;;;2.20;99.90;;;;;;5019323;28;20632;-93
2020/12/30 07:01:56;;;;;;;7.20;6.37;;;2.10;99.90;;;;;;5018682;28;20712;-94
2020/12/30 07:04:31;;;;;;;6.50;5.90;;;2.00;99.90;;;;;;5020204;28;20659;-93
2020/12/30 07:06:59;;;;;;;6.10;5.50;;;1.90;99.90;;;;;;5028035;28;20636;-93
2020/12/30 07:09:30;;;;;;;6.97;6.23;;;1.90;99.90;;;;;;5016194;28;21021;-94
2020/12/30 07:11:58;;;;;;;7.67;6.43;;;1.90;99.90;;;;;;5012767;28;20638;-93
2020/12/30 07:14:28;;;;;;;6.10;5.60;;;2.00;99.90;;;;;;5000670;28;20649;-93
2020/12/30 07:16:59;;;;;;;7.00;6.30;;;2.00;99.90;;;;;;5000234;28;20726;-94
2020/12/30 07:19:26;;;;;;;7.73;6.97;;;2.00;99.90;;;;;;5010576;28;20652;-94
2020/12/30 07:21:57;;;;;;;7.67;6.93;;;1.90;99.90;;;;;;5020399;28;20653;-92
2020/12/30 07:24:27;;;;;;;8.40;7.50;;;1.90;99.90;;;;;;5012443;28;20776;-93
2020/12/30 07:26:56;;;;;;;7.67;6.97;;;1.90;99.90;;;;;;5002887;28;20665;-93
2020/12/30 07:29:23;;;;;;;8.23;7.23;;;2.00;99.90;;;;;;5005582;28;20642;-93
2020/12/30 07:31:53;;;;;;;7.10;6.40;;;2.10;99.90;;;;;;5000507;28;20704;-93
2020/12/30 07:34:21;;;;;;;4.73;4.33;;;2.10;99.90;;;;;;5006314;28;20664;-93
2020/12/30 07:36:48;;;;;;;3.77;3.40;;;2.00;99.90;;;;;;5002615;28;20685;-95
2020/12/30 07:39:16;;;;;;;6.20;5.20;;;2.10;99.90;;;;;;5007164;28;20652;-93
2020/12/30 07:41:46;;;;;;;6.60;5.60;;;2.20;99.90;;;;;;4998449;28;20656;-93
2020/12/30 07:44:14;;;;;;;4.33;3.77;;;2.30;99.90;;;;;;5004601;28;20665;-93
2020/12/30 07:46:41;;;;;;;3.70;3.37;;;2.30;99.90;;;;;;5013403;28;20673;-94
2020/12/30 07:49:24;;;;;;;5.60;5.00;;;2.40;99.90;;;;;;5026636;28;20735;-93
2020/12/30 07:51:54;;;;;;;4.63;4.10;;;2.50;99.90;;;;;;5017427;28;20641;-94
2020/12/30 07:54:22;;;;;;;4.40;3.43;;;2.60;99.90;;;;;;5018755;28;20636;-94
2020/12/30 07:56:52;;;;;;;2.67;2.47;;;2.60;99.90;;;;;;5006680;28;20709;-94
2020/12/30 07:59:31;;;;;;;3.13;2.60;;;2.60;99.90;;;;;;5003123;28;22496;-93
2020/12/30 08:02:02;;;;;;;2.90;2.60;;;2.70;99.90;;;;;;5005887;28;20676;-94
2020/12/30 08:04:37;;;;;;;3.27;2.97;;;2.70;99.90;;;;;;5005915;28;20645;-94
2020/12/30 08:07:05;;;;;;;3.17;2.43;;;2.80;99.90;;;;;;5002351;28;21118;-92
2020/12/30 08:09:33;;;;;;;4.40;3.27;;;3.00;99.90;;;;;;5007761;28;20641;-93
2020/12/30 08:12:03;;;;;;;4.00;3.10;;;3.00;99.90;;;;;;5003582;28;20623;-94
2020/12/30 08:14:36;;;;;;;3.37;2.57;;;3.00;99.90;;;;;;5006698;28;20979;-94
2020/12/30 08:17:05;;;;;;;3.90;2.80;;;3.20;99.90;;;;;;5006399;28;20674;-92
2020/12/30 08:19:38;;;;;;;3.00;2.63;;;3.30;99.90;;;;;;4997393;28;21032;-92
2020/12/30 08:22:09;;;;;;;3.50;2.87;;;3.50;99.90;;;;;;4996286;28;20643;-93
2020/12/30 08:24:38;;;;;;;3.03;2.43;;;3.60;99.90;;;;;;4999146;28;20643;-94
2020/12/30 08:27:09;;;;;;;2.60;2.40;;;3.70;99.90;;;;;;4985481;28;20997;-93
2020/12/30 08:29:37;;;;;;;3.37;2.20;;;3.60;99.90;;;;;;5001056;28;20656;-94
2020/12/30 08:32:21;;;;;;;3.33;2.67;;;3.40;99.90;;;;;;4999382;28;20666;-95
2020/12/30 08:34:53;;;;;;;1.87;1.77;;;3.40;99.90;;;;;;5002467;28;20711;-94
2020/12/30 08:37:26;;;;;;;3.30;2.37;;;3.30;99.90;;;;;;5001369;28;20742;-94
2020/12/30 08:40:01;;;;;;;4.13;2.97;;;3.20;99.90;;;;;;5003846;28;20643;-94
2020/12/30 08:42:47;;;;;;;4.10;2.93;;;3.30;99.90;;;;;;5006592;28;20675;-93
2020/12/30 08:45:14;;;;;;;3.00;2.53;;;3.30;99.90;;;;;;5008568;28;20661;-94
2020/12/30 08:47:42;;;;;;;5.30;4.00;;;3.50;99.90;;;;;;5006562;28;20685;-93
2020/12/30 08:50:10;;;;;;;6.17;4.27;;;3.50;99.90;;;;;;5005370;28;20655;-94
2020/12/30 08:52:40;;;;;;;7.20;4.97;;;3.50;99.90;;;;;;5006032;28;20657;-94
2020/12/30 08:55:07;;;;;;;8.43;5.50;;;3.60;99.90;;;;;;5003935;28;20658;-93
2020/12/30 08:57:34;;;;;;;7.00;4.80;;;3.50;99.90;;;;;;5001344;28;20694;-93
2020/12/30 09:00:17;;;;;;;5.33;3.90;;;3.60;99.90;;;;;;5001833;28;20690;-94
2020/12/30 09:02:46;;;;;;;5.40;4.50;;;3.70;99.90;;;;;;5004251;28;21060;-93
2020/12/30 09:05:28;;;;;;;5.57;5.00;;;3.70;99.90;;;;;;5003683;28;20672;-94
2020/12/30 09:07:54;;;;;;;4.87;3.83;;;3.80;99.90;;;;;;5002465;28;20653;-94
2020/12/30 09:10:33;;;;;;;5.33;3.80;;;4.00;99.90;;;;;;5006671;28;20643;-94
2020/12/30 09:13:14;;;;;;;3.73;3.40;;;3.90;99.90;;;;;;5000917;28;20651;-92
2020/12/30 09:15:54;;;;;;;4.40;3.63;;;3.90;99.90;;;;;;5003801;28;20640;-93
2020/12/30 09:18:29;;;;;;;5.33;3.17;;;3.80;99.90;;;;;;5005549;28;20635;-92
2020/12/30 09:20:58;;;;;;;3.80;3.40;;;3.90;99.90;;;;;;5004308;28;20638;-94
2020/12/30 09:23:27;;;;;;;4.20;2.87;;;4.00;99.90;;;;;;5005178;28;20995;-92
2020/12/30 09:25:55;;;;;;;3.07;2.87;;;4.10;99.90;;;;;;5005200;28;20640;-93
2020/12/30 09:28:23;;;;;;;5.13;3.47;;;4.10;99.90;;;;;;5005842;28;20633;-92
2020/12/30 09:30:52;;;;;;;3.00;2.70;;;4.10;99.90;;;;;;5008591;28;20636;-93
2020/12/30 09:33:24;;;;;;;2.80;2.50;;;4.10;99.90;;;;;;5002045;28;20812;-93
2020/12/30 09:35:51;;;;;;;7.13;2.70;;;4.20;99.90;;;;;;5001842;28;20760;-91
2020/12/30 09:38:20;;;;;;;4.50;2.77;;;4.20;99.90;;;;;;4999317;28;20672;-92
2020/12/30 09:40:57;;;;;;;3.93;2.60;;;4.40;99.90;;;;;;5000391;28;20674;-91
2020/12/30 09:43:31;;;;;;;3.20;2.90;;;4.40;99.90;;;;;;5002364;28;20757;-93
2020/12/30 09:45:59;;;;;;;6.03;3.10;;;4.40;99.90;;;;;;5003501;28;20720;-93
2020/12/30 09:48:25;;;;;;;7.73;2.90;;;4.30;99.90;;;;;;5010183;28;20712;-93
2020/12/30 09:50:58;;;;;;;4.60;2.90;;;4.80;99.90;;;;;;5010894;28;20651;-94
2020/12/30 09:53:25;;;;;;;4.00;2.80;;;4.40;99.90;;;;;;5004956;28;20733;-93
2020/12/30 09:55:52;;;;;;;5.90;3.20;;;4.40;99.90;;;;;;5012947;28;21253;-92
2020/12/30 09:58:18;;;;;;;3.93;3.53;;;4.30;99.90;;;;;;5022601;28;20660;-92
2020/12/30 10:00:48;;;;;;;6.07;3.90;;;4.30;99.90;;;;;;5020503;28;20644;-92
2020/12/30 10:03:16;;;;;;;4.70;4.13;;;4.20;99.90;;;;;;5007544;28;20651;-93
2020/12/30 10:05:44;;;;;;;6.80;3.40;;;4.30;99.90;;;;;;4985452;28;21164;-94
2020/12/30 10:08:13;;;;;;;4.80;4.30;;;4.50;99.90;;;;;;5006797;28;20674;-92
2020/12/30 10:10:43;;;;;;;4.17;3.87;;;4.30;99.90;;;;;;5010370;28;20646;-93
2020/12/30 10:13:09;;;;;;;3.80;2.80;;;4.20;99.90;;;;;;5009600;28;21198;-94
2020/12/30 10:15:37;;;;;;;3.87;2.97;;;4.20;99.90;;;;;;5007564;28;20655;-92
2020/12/30 10:18:05;;;;;;;4.00;2.90;;;4.30;99.90;;;;;;5008791;28;20745;-93
2020/12/30 10:20:31;;;;;;;3.80;3.07;;;4.40;99.90;;;;;;5004201;28;20651;-93
2020/12/30 10:23:06;;;;;;;3.43;3.03;;;4.40;99.90;;;;;;5008285;28;20667;-93
2020/12/30 10:25:33;;;;;;;3.00;2.70;;;4.80;99.90;;;;;;5001306;28;20664;-92
2020/12/30 10:28:00;;;;;;;5.83;3.47;;;4.40;99.90;;;;;;5009977;28;21119;-93
2020/12/30 10:30:27;;;;;;;3.90;2.87;;;4.30;99.90;;;;;;5004317;28;20660;-93
2020/12/30 10:32:55;;;;;;;2.63;2.30;;;4.40;99.90;;;;;;5010695;28;20652;-93
2020/12/30 10:35:22;;;;;;;4.10;2.53;;;4.50;99.90;;;;;;5007461;28;20646;-93
2020/12/30 10:37:50;;;;;;;3.53;3.07;;;4.50;99.90;;;;;;5013400;28;21041;-93
2020/12/30 10:40:22;;;;;;;3.20;2.90;;;4.70;99.90;;;;;;5010468;28;20643;-94
2020/12/30 10:42:49;;;;;;;3.93;2.80;;;4.80;99.90;;;;;;5003709;28;20638;-94
2020/12/30 10:45:21;;;;;;;3.53;2.57;;;5.00;99.90;;;;;;5013099;28;21215;-93
2020/12/30 10:47:48;;;;;;;6.10;2.97;;;5.00;99.90;;;;;;5006121;28;20714;-94
2020/12/30 10:50:14;;;;;;;3.10;2.70;;;5.00;99.90;;;;;;5005956;28;20649;-93
2020/12/30 10:52:41;;;;;;;2.90;2.30;;;5.00;99.90;;;;;;5009983;28;21125;-93
2020/12/30 10:55:09;;;;;;;3.20;2.90;;;5.20;99.90;;;;;;5009136;28;20910;-94
2020/12/30 10:57:36;;;;;;;2.67;2.47;;;5.70;99.90;;;;;;5007787;28;21256;-92
2020/12/30 11:00:03;;;;;;;3.20;2.50;;;5.50;99.90;;;;;;5007071;28;20653;-94
2020/12/30 11:02:31;;;;;;;2.83;2.23;;;6.00;99.90;;;;;;5003376;28;20671;-93
2020/12/30 11:05:00;;;;;;;3.47;2.80;;;6.10;99.90;;;;;;5013954;28;20638;-92
2020/12/30 11:07:34;;;;;;;3.77;3.33;;;6.00;99.90;;;;;;5008535;28;20695;-93
2020/12/30 11:10:01;;;;;;;3.93;2.97;;;6.10;99.90;;;;;;5008210;28;20619;-92
2020/12/30 11:12:29;;;;;;;6.80;4.03;;;6.00;99.90;;;;;;5011164;28;20651;-93
2020/12/30 11:14:56;;;;;;;4.87;3.33;;;6.10;99.90;;;;;;5008293;28;20639;-93
2020/12/30 11:17:22;;;;;;;4.23;2.80;;;6.10;99.90;;;;;;5008552;28;20689;-92
2020/12/30 11:19:51;;;;;;;3.93;2.97;;;6.20;99.90;;;;;;5002480;28;21278;-93
2020/12/30 11:22:18;;;;;;;4.47;2.47;;;6.10;99.90;;;;;;5006979;28;20647;-93
2020/12/30 11:24:44;;;;;;;4.40;3.00;;;5.90;99.90;;;;;;5004461;28;20672;-92
2020/12/30 11:27:24;;;;;;;4.30;2.53;;;5.90;99.90;;;;;;5008363;28;20661;-92
2020/12/30 11:29:50;;;;;;;5.43;3.10;;;6.00;99.90;;;;;;4998133;28;21196;-92
2020/12/30 11:32:16;;;;;;;2.40;2.20;;;6.00;99.90;;;;;;4995760;28;20645;-93
2020/12/30 11:34:43;;;;;;;3.93;2.57;;;6.10;99.90;;;;;;5004058;28;20647;-92
2020/12/30 11:37:12;;;;;;;4.00;3.50;;;5.90;99.90;;;;;;5006862;28;20684;-92
2020/12/30 11:39:39;;;;;;;3.60;2.60;;;6.10;99.90;;;;;;5004265;28;20644;-93
2020/12/30 11:42:05;;;;;;;3.60;2.70;;;6.20;99.90;;;;;;4997304;28;20705;-93
2020/12/30 11:44:32;;;;;;;2.83;2.33;;;6.20;99.90;;;;;;5004504;28;20660;-94
2020/12/30 11:46:59;;;;;;;7.87;2.70;;;6.20;99.90;;;;;;5005294;28;20655;-92
2020/12/30 11:49:25;;;;;;;3.90;2.83;;;6.20;99.90;;;;;;5006796;28;21136;-93
2020/12/30 11:51:53;;;;;;;3.63;3.00;;;6.30;99.90;;;;;;5000543;28;20660;-93
2020/12/30 11:54:20;;;;;;;2.70;2.33;;;6.30;99.90;;;;;;4999041;28;20621;-93
2020/12/30 11:56:47;;;;;;;4.80;2.77;;;6.20;99.90;;;;;;5006589;28;20683;-92
2020/12/30 11:59:13;;;;;;;3.83;2.70;;;6.30;99.90;;;;;;5003139;28;20731;-93
2020/12/30 12:01:39;;;;;;;4.20;2.93;;;6.20;99.90;;;;;;5001735;28;20748;-92
2020/12/30 12:04:07;;;;;;;3.60;3.30;;;6.30;99.90;;;;;;5002232;28;20764;-93
2020/12/30 12:06:33;;;;;;;4.10;3.27;;;6.30;99.90;;;;;;4998716;28;20655;-93
2020/12/30 12:09:00;;;;;;;2.87;2.60;;;6.30;99.90;;;;;;4997186;28;20641;-92
2020/12/30 12:11:35;;;;;;;3.90;2.73;;;6.60;99.90;;;;;;5002884;28;20698;-93
2020/12/30 12:14:05;;;;;;;2.60;2.33;;;6.50;99.90;;;;;;5003604;28;20656;-92
2020/12/30 12:16:31;;;;;;;2.57;2.17;;;6.50;99.90;;;;;;5003018;28;20671;-92
2020/12/30 12:18:59;;;;;;;1.60;1.03;;;6.60;99.90;;;;;;5003842;28;21334;-92
2020/12/30 12:21:25;;;;;;;2.30;1.97;;;6.70;99.90;;;;;;5005932;28;20639;-92
2020/12/30 12:23:53;;;;;;;2.23;1.83;;;6.70;99.90;;;;;;5004280;28;21201;-91
2020/12/30 12:26:31;;;;;;;1.43;1.13;;;6.80;99.90;;;;;;5002337;28;20664;-93
2020/12/30 12:29:00;;;;;;;2.80;1.30;;;6.70;99.90;;;;;;5005752;28;20644;-92
2020/12/30 12:31:26;;;;;;;1.50;1.23;;;6.60;99.90;;;;;;5007183;28;21503;-92
2020/12/30 12:33:58;;;;;;;2.53;1.43;;;6.60;99.90;;;;;;5004873;28;20748;-93
2020/12/30 12:36:24;;;;;;;2.17;1.50;;;6.50;99.90;;;;;;5009061;28;20759;-92
2020/12/30 12:38:51;;;;;;;1.33;1.20;;;6.50;99.90;;;;;;5008112;28;20672;-93
2020/12/30 12:41:22;;;;;;;2.60;1.67;;;6.30;99.90;;;;;;5005015;28;21159;-93
2020/12/30 12:43:50;;;;;;;2.80;2.00;;;6.40;99.90;;;;;;5003912;28;20641;-92
2020/12/30 12:46:20;;;;;;;3.27;1.90;;;6.40;99.90;;;;;;5012566;28;21015;-93
2020/12/30 12:48:47;;;;;;;3.10;1.70;;;6.40;99.90;;;;;;5006500;28;20641;-93
2020/12/30 12:51:14;;;;;;;1.67;1.50;;;6.50;99.90;;;;;;5004718;28;20985;-92
2020/12/30 12:53:41;;;;;;;2.10;1.83;;;6.50;99.90;;;;;;5010373;28;20641;-92
2020/12/30 12:56:16;;;;;;;3.03;1.80;;;6.60;99.90;;;;;;5003347;28;20672;-91
2020/12/30 12:58:44;;;;;;;2.20;1.60;;;6.70;99.90;;;;;;5003812;28;20699;-92
2020/12/30 13:01:10;;;;;;;1.20;1.10;;;6.60;99.90;;;;;;5007106;28;21345;-93
2020/12/30 13:03:38;;;;;;;2.30;1.73;;;6.60;99.90;;;;;;4998436;28;20654;-93
2020/12/30 13:06:05;;;;;;;3.57;2.30;;;6.60;99.90;;;;;;5010541;28;21091;-91